Time;durP1;ratioP1;P1;durP2;ratioP2;P2;SDS_P1;SDS_P2;PMS_P1;PMS_P2;Temp;Humidity;BMP_temperature;BMP_pressure;BME280_temperature;BME280_humidity;BME280_pressure;Samples;Min_cycle;Max_cycle;Signal;HPM_P1;HPM_P2
2023/10/28 00:01:26;;;;;;;5.23;2.90;;;19.50;74.70;;;;;;4949989;28;20474;-73
2023/10/28 00:03:56;;;;;;;3.10;2.83;;;19.50;75.00;;;;;;4950139;29;20447;-74
2023/10/28 00:06:24;;;;;;;3.00;2.40;;;19.50;75.00;;;;;;4941277;29;20435;-74
2023/10/28 00:08:52;;;;;;;4.43;2.40;;;19.50;75.00;;;;;;4950009;28;20475;-74
2023/10/28 00:11:22;;;;;;;2.90;2.60;;;19.50;75.10;;;;;;4948715;29;20526;-74
2023/10/28 00:13:52;;;;;;;3.50;2.87;;;19.50;75.00;;;;;;4957078;29;20486;-74
2023/10/28 00:16:20;;;;;;;2.73;2.53;;;19.50;75.10;;;;;;4956993;29;20449;-74
2023/10/28 00:18:49;;;;;;;2.53;2.37;;;19.50;75.00;;;;;;4957072;28;20486;-74
2023/10/28 00:21:18;;;;;;;2.60;2.30;;;19.50;75.00;;;;;;4955464;29;20546;-73
2023/10/28 00:23:46;;;;;;;4.63;2.77;;;19.50;74.70;;;;;;4952126;29;20538;-74
2023/10/28 00:26:14;;;;;;;2.83;2.47;;;19.50;75.00;;;;;;4955170;28;20946;-74
2023/10/28 00:28:43;;;;;;;2.43;2.30;;;19.50;75.00;;;;;;4950951;29;20498;-74
2023/10/28 00:31:17;;;;;;;2.63;2.40;;;19.50;74.90;;;;;;4956832;28;20470;-74
2023/10/28 00:33:45;;;;;;;3.03;2.23;;;19.50;75.20;;;;;;4956948;29;20446;-74
2023/10/28 00:36:13;;;;;;;2.93;2.67;;;19.50;75.10;;;;;;4956908;28;20521;-73
2023/10/28 00:38:40;;;;;;;2.47;2.37;;;19.50;75.10;;;;;;4943409;29;20463;-74
2023/10/28 00:41:08;;;;;;;2.53;2.33;;;19.50;74.90;;;;;;4948548;28;21045;-74
2023/10/28 00:43:36;;;;;;;2.87;2.67;;;19.50;75.00;;;;;;4948960;29;20443;-73
2023/10/28 00:46:07;;;;;;;4.73;2.73;;;19.50;75.10;;;;;;4948474;29;20439;-74
2023/10/28 00:48:35;;;;;;;2.40;2.20;;;19.50;75.30;;;;;;4955207;28;20459;-74
2023/10/28 00:51:03;;;;;;;2.57;2.37;;;19.50;75.20;;;;;;4954044;28;20468;-74
2023/10/28 00:53:31;;;;;;;2.70;2.40;;;19.50;75.20;;;;;;4939843;29;20448;-74
2023/10/28 00:56:01;;;;;;;3.20;2.80;;;19.50;75.10;;;;;;4943533;29;20444;-74
2023/10/28 00:58:29;;;;;;;2.90;2.70;;;19.50;75.20;;;;;;4954807;29;20439;-73
2023/10/28 01:00:58;;;;;;;3.63;2.57;;;19.50;75.20;;;;;;4949026;28;20523;-74
2023/10/28 01:03:30;;;;;;;2.83;2.40;;;19.40;75.10;;;;;;4954655;28;20443;-74
2023/10/28 01:05:58;;;;;;;3.43;2.37;;;19.50;75.30;;;;;;4960289;28;20435;-74
2023/10/28 01:08:26;;;;;;;2.80;2.60;;;19.50;75.10;;;;;;4952883;28;20432;-74
2023/10/28 01:11:00;;;;;;;2.63;2.53;;;19.50;74.80;;;;;;4951318;28;20497;-74
2023/10/28 01:13:28;;;;;;;2.53;2.33;;;19.50;74.90;;;;;;4951548;28;20450;-74
2023/10/28 01:15:56;;;;;;;2.57;2.37;;;19.50;75.10;;;;;;4955966;28;20478;-73
2023/10/28 01:18:24;;;;;;;3.77;2.67;;;19.50;75.10;;;;;;4955766;29;20474;-74
2023/10/28 01:20:54;;;;;;;2.77;2.57;;;19.50;75.10;;;;;;4955689;28;20473;-75
2023/10/28 01:23:23;;;;;;;2.80;2.30;;;19.50;75.20;;;;;;4947648;28;20539;-74
2023/10/28 01:25:52;;;;;;;2.87;2.67;;;19.50;75.20;;;;;;4949864;28;20451;-74
2023/10/28 01:28:20;;;;;;;2.40;2.30;;;19.50;75.10;;;;;;4950746;29;20478;-74
2023/10/28 01:30:48;;;;;;;2.60;2.50;;;19.50;75.30;;;;;;4947262;28;20517;-74
2023/10/28 01:33:16;;;;;;;3.77;2.13;;;19.50;75.10;;;;;;4947465;29;20435;-74
2023/10/28 01:35:44;;;;;;;2.60;2.30;;;19.50;75.10;;;;;;4950751;28;20468;-74
2023/10/28 01:38:13;;;;;;;2.37;2.20;;;19.50;75.10;;;;;;4952721;28;20443;-74
2023/10/28 01:40:42;;;;;;;2.57;2.37;;;19.40;75.10;;;;;;4947470;28;20537;-74
2023/10/28 01:43:12;;;;;;;2.70;2.30;;;19.40;75.10;;;;;;4955385;29;20541;-74
2023/10/28 01:45:40;;;;;;;2.10;2.00;;;19.50;75.30;;;;;;4955216;28;20447;-74
2023/10/28 01:48:08;;;;;;;2.60;2.40;;;19.50;75.00;;;;;;4947586;29;20452;-75
2023/10/28 01:50:36;;;;;;;2.00;1.90;;;19.50;75.20;;;;;;4947124;28;20920;-74
2023/10/28 01:53:04;;;;;;;3.07;2.77;;;19.40;75.20;;;;;;4950743;28;20456;-74
2023/10/28 01:55:33;;;;;;;2.47;2.20;;;19.40;75.00;;;;;;4954890;28;20452;-75
2023/10/28 01:58:02;;;;;;;2.33;2.13;;;19.50;75.10;;;;;;4955146;29;20474;-74
2023/10/28 02:00:31;;;;;;;2.20;2.00;;;19.50;75.10;;;;;;4953150;28;20459;-74
2023/10/28 02:03:00;;;;;;;2.20;2.10;;;19.50;75.00;;;;;;4947276;28;20478;-74
2023/10/28 02:05:28;;;;;;;2.57;2.37;;;19.50;75.30;;;;;;4954913;29;20558;-74
2023/10/28 02:07:56;;;;;;;2.40;2.30;;;19.40;74.90;;;;;;4954892;28;20495;-74
2023/10/28 02:10:24;;;;;;;2.60;2.40;;;19.40;75.20;;;;;;4952792;29;20479;-75
2023/10/28 02:12:53;;;;;;;3.33;2.27;;;19.40;74.90;;;;;;4948689;28;20459;-73
2023/10/28 02:15:22;;;;;;;2.00;1.90;;;19.40;75.10;;;;;;4949829;29;20560;-75
2023/10/28 02:17:51;;;;;;;5.03;2.53;;;19.50;75.10;;;;;;4956009;28;20474;-75
2023/10/28 02:20:19;;;;;;;2.20;2.10;;;19.40;75.10;;;;;;4954546;29;20463;-74
2023/10/28 02:22:48;;;;;;;2.60;2.40;;;19.40;74.90;;;;;;4946692;28;20459;-74
2023/10/28 02:25:17;;;;;;;2.57;2.37;;;19.40;75.10;;;;;;4954654;29;20443;-73
2023/10/28 02:27:45;;;;;;;4.13;2.13;;;19.40;75.10;;;;;;4954527;28;20489;-74
2023/10/28 02:30:14;;;;;;;2.40;2.20;;;19.40;74.90;;;;;;4949171;28;20480;-74
2023/10/28 02:32:43;;;;;;;2.23;2.13;;;19.40;75.20;;;;;;4947375;28;20454;-74
2023/10/28 02:35:13;;;;;;;2.67;2.40;;;19.40;75.20;;;;;;4946699;28;20456;-73
2023/10/28 02:37:41;;;;;;;2.23;2.13;;;19.40;75.10;;;;;;4952548;29;20524;-74
2023/10/28 02:40:10;;;;;;;2.20;2.10;;;19.40;75.00;;;;;;4949435;28;20436;-74
2023/10/28 02:42:38;;;;;;;2.77;2.60;;;19.40;75.10;;;;;;4952014;29;20466;-74
2023/10/28 02:45:09;;;;;;;2.27;2.17;;;19.30;75.00;;;;;;4946472;29;20470;-74
2023/10/28 02:47:37;;;;;;;2.37;2.27;;;19.40;75.30;;;;;;4954349;28;21022;-75
2023/10/28 02:50:08;;;;;;;2.67;2.43;;;19.40;75.30;;;;;;4954397;28;20486;-74
2023/10/28 02:52:36;;;;;;;1.93;1.83;;;19.40;75.10;;;;;;4957715;28;20505;-75
2023/10/28 02:55:05;;;;;;;2.17;2.07;;;19.40;74.90;;;;;;4954499;28;20481;-75
2023/10/28 02:57:33;;;;;;;2.07;1.97;;;19.40;75.10;;;;;;4946361;29;21039;-75
2023/10/28 03:00:01;;;;;;;2.30;2.20;;;19.30;75.00;;;;;;4953931;28;20471;-73
2023/10/28 03:02:28;;;;;;;2.33;2.23;;;19.30;75.00;;;;;;4947529;28;20506;-74
2023/10/28 03:04:57;;;;;;;2.27;2.10;;;19.30;74.90;;;;;;4954477;28;20431;-74
2023/10/28 03:07:26;;;;;;;2.47;2.27;;;19.30;75.10;;;;;;4959898;28;20451;-74
2023/10/28 03:09:54;;;;;;;2.13;2.03;;;19.30;75.10;;;;;;4948209;28;20483;-75
2023/10/28 03:12:22;;;;;;;1.83;1.73;;;19.30;75.10;;;;;;4952669;28;20498;-75
2023/10/28 03:14:50;;;;;;;2.00;1.90;;;19.30;75.20;;;;;;4947063;28;20529;-75
2023/10/28 03:17:18;;;;;;;2.60;2.40;;;19.40;75.10;;;;;;4953540;28;20474;-74
2023/10/28 03:19:46;;;;;;;1.97;1.87;;;19.40;75.50;;;;;;4953848;29;20455;-74
2023/10/28 03:22:14;;;;;;;2.00;1.90;;;19.40;75.10;;;;;;4951743;28;20550;-74
2023/10/28 03:24:43;;;;;;;2.23;2.13;;;19.30;75.10;;;;;;4952696;28;20488;-75
2023/10/28 03:27:12;;;;;;;2.10;2.00;;;19.40;75.20;;;;;;4953756;29;20502;-74
2023/10/28 03:29:40;;;;;;;2.20;2.10;;;19.40;75.30;;;;;;4959531;28;20499;-74
2023/10/28 03:32:09;;;;;;;2.13;2.03;;;19.30;74.90;;;;;;4962589;28;20517;-75
2023/10/28 03:34:37;;;;;;;2.50;2.30;;;19.30;75.30;;;;;;4957477;28;20543;-74
2023/10/28 03:37:05;;;;;;;3.30;1.90;;;19.30;75.20;;;;;;4957440;29;20467;-74
2023/10/28 03:39:33;;;;;;;2.07;1.97;;;19.40;75.30;;;;;;4957217;29;20533;-74
2023/10/28 03:42:02;;;;;;;2.30;2.20;;;19.30;75.00;;;;;;4954448;28;20459;-75
2023/10/28 03:44:31;;;;;;;2.43;2.33;;;19.30;75.20;;;;;;4947678;28;20523;-74
2023/10/28 03:46:59;;;;;;;2.30;2.20;;;19.30;75.10;;;;;;4944449;29;20452;-75
2023/10/28 03:49:28;;;;;;;2.00;1.90;;;19.30;75.10;;;;;;4954875;29;20532;-74
2023/10/28 03:51:56;;;;;;;2.10;2.00;;;19.30;75.10;;;;;;4956797;28;20565;-74
2023/10/28 03:54:24;;;;;;;2.70;2.00;;;19.30;75.30;;;;;;4949359;29;20528;-74
2023/10/28 03:56:52;;;;;;;1.97;1.87;;;19.30;75.10;;;;;;4952098;29;20481;-74
2023/10/28 03:59:21;;;;;;;2.03;1.93;;;19.30;75.30;;;;;;4956519;29;20525;-74
2023/10/28 04:01:49;;;;;;;1.97;1.87;;;19.30;75.30;;;;;;4948765;28;20471;-73
2023/10/28 04:04:18;;;;;;;1.90;1.80;;;19.30;75.20;;;;;;4963137;28;20421;-74
2023/10/28 04:06:45;;;;;;;3.10;2.10;;;19.40;75.30;;;;;;4956880;28;20534;-74
2023/10/28 04:09:14;;;;;;;2.20;2.10;;;19.40;75.50;;;;;;4956855;29;20892;-74
2023/10/28 04:11:42;;;;;;;1.63;1.63;;;19.30;75.20;;;;;;4946775;28;20556;-75
2023/10/28 04:14:10;;;;;;;1.80;1.80;;;19.30;75.10;;;;;;4951720;28;20468;-74
2023/10/28 04:16:39;;;;;;;2.10;2.00;;;19.30;75.20;;;;;;4942107;29;20519;-75
2023/10/28 04:19:07;;;;;;;2.00;1.90;;;19.30;75.10;;;;;;4952465;28;20439;-75
2023/10/28 04:21:35;;;;;;;1.70;1.60;;;19.30;75.20;;;;;;4951284;28;20546;-74
2023/10/28 04:24:03;;;;;;;1.83;1.70;;;19.30;75.50;;;;;;4952295;28;20534;-74
2023/10/28 04:26:31;;;;;;;2.10;2.00;;;19.30;75.50;;;;;;4956831;28;20526;-75
2023/10/28 04:29:00;;;;;;;1.90;1.80;;;19.30;75.40;;;;;;4956804;28;20545;-74
2023/10/28 04:31:29;;;;;;;1.97;1.87;;;19.30;75.40;;;;;;4952309;28;20509;-74
2023/10/28 04:34:00;;;;;;;2.30;2.10;;;19.30;75.30;;;;;;4956518;28;20451;-75
2023/10/28 04:36:28;;;;;;;1.90;1.80;;;19.30;75.30;;;;;;4956626;28;20447;-75
2023/10/28 04:38:56;;;;;;;1.80;1.70;;;19.30;75.30;;;;;;4956436;29;20522;-74
2023/10/28 04:41:24;;;;;;;2.23;1.87;;;19.30;75.10;;;;;;4956461;28;20550;-74
2023/10/28 04:43:52;;;;;;;2.50;1.90;;;19.30;75.20;;;;;;4948950;29;20542;-74
2023/10/28 04:46:20;;;;;;;2.37;2.17;;;19.30;75.40;;;;;;4956606;29;20534;-74
2023/10/28 04:48:48;;;;;;;2.10;1.90;;;19.30;75.40;;;;;;4971402;28;20471;-74
2023/10/28 04:51:17;;;;;;;2.00;1.90;;;19.30;75.20;;;;;;4957520;28;20477;-74
2023/10/28 04:53:46;;;;;;;1.50;1.50;;;19.30;75.20;;;;;;4947154;28;20486;-74
2023/10/28 04:56:14;;;;;;;1.80;1.70;;;19.30;75.30;;;;;;4951346;29;20547;-74
2023/10/28 04:58:42;;;;;;;2.23;2.13;;;19.30;75.20;;;;;;4948352;28;20464;-74
2023/10/28 05:01:10;;;;;;;1.53;1.53;;;19.30;75.30;;;;;;4956050;28;20451;-74
2023/10/28 05:03:38;;;;;;;2.00;1.90;;;19.30;75.30;;;;;;4966238;28;20441;-74
2023/10/28 05:06:09;;;;;;;1.47;1.47;;;19.30;75.10;;;;;;4961914;28;20522;-74
2023/10/28 05:08:39;;;;;;;1.97;1.87;;;19.30;75.30;;;;;;4956367;29;20514;-74
2023/10/28 05:11:08;;;;;;;1.83;1.73;;;19.30;75.50;;;;;;4955666;28;20561;-75
2023/10/28 05:13:36;;;;;;;2.37;1.67;;;19.30;75.40;;;;;;4955087;29;20451;-73
2023/10/28 05:16:05;;;;;;;1.97;1.83;;;19.30;75.10;;;;;;4949333;29;20443;-74
2023/10/28 05:18:33;;;;;;;2.10;2.00;;;19.30;75.40;;;;;;4955738;29;20451;-73
2023/10/28 05:21:01;;;;;;;2.20;2.10;;;19.30;75.30;;;;;;4947786;28;20494;-74
2023/10/28 05:23:29;;;;;;;1.90;1.80;;;19.30;75.50;;;;;;4940484;28;20478;-74
2023/10/28 05:25:59;;;;;;;1.90;1.80;;;19.30;75.50;;;;;;4950384;29;20474;-74
2023/10/28 05:28:27;;;;;;;2.40;2.30;;;19.20;75.20;;;;;;4950644;28;20430;-74
2023/10/28 05:30:54;;;;;;;2.03;1.93;;;19.30;75.70;;;;;;4947426;28;20525;-73
2023/10/28 05:33:22;;;;;;;1.80;1.70;;;19.30;75.30;;;;;;4951037;29;20440;-74
2023/10/28 05:35:51;;;;;;;1.77;1.67;;;19.30;75.30;;;;;;4955557;28;20475;-74
2023/10/28 05:38:20;;;;;;;1.93;1.60;;;19.30;75.30;;;;;;4949341;28;20499;-74
2023/10/28 05:40:49;;;;;;;2.03;1.93;;;19.30;75.50;;;;;;4951722;28;20551;-74
2023/10/28 05:43:18;;;;;;;1.83;1.73;;;19.30;75.20;;;;;;4944083;29;20526;-74
2023/10/28 05:45:47;;;;;;;2.00;1.90;;;19.30;75.30;;;;;;4954117;29;20470;-74
2023/10/28 05:48:18;;;;;;;1.80;1.70;;;19.30;75.40;;;;;;4950299;29;20427;-74
2023/10/28 05:50:47;;;;;;;2.10;2.00;;;19.30;75.50;;;;;;4955581;29;20458;-74
2023/10/28 05:53:15;;;;;;;1.90;1.80;;;19.30;75.60;;;;;;4945044;29;20538;-74
2023/10/28 05:55:43;;;;;;;2.10;2.00;;;19.20;75.40;;;;;;4957896;28;20448;-74
2023/10/28 05:58:11;;;;;;;2.10;2.00;;;19.30;75.60;;;;;;4955417;29;20447;-75
2023/10/28 06:00:41;;;;;;;2.00;1.90;;;19.30;75.50;;;;;;4954526;28;20465;-75
2023/10/28 06:03:09;;;;;;;2.00;1.90;;;19.30;75.50;;;;;;4948709;29;20463;-74
2023/10/28 06:05:37;;;;;;;2.10;2.00;;;19.30;75.30;;;;;;4939159;29;20452;-76
2023/10/28 06:08:07;;;;;;;2.07;1.97;;;19.30;75.20;;;;;;4955752;28;20444;-75
2023/10/28 06:10:35;;;;;;;1.93;1.83;;;19.30;75.60;;;;;;4948678;28;20455;-75
2023/10/28 06:13:03;;;;;;;1.80;1.70;;;19.30;75.40;;;;;;4954865;29;20467;-75
2023/10/28 06:15:31;;;;;;;2.00;1.90;;;19.30;75.30;;;;;;4954799;28;20467;-74
2023/10/28 06:18:01;;;;;;;1.90;1.80;;;19.30;75.50;;;;;;4946758;28;20461;-74
2023/10/28 06:20:30;;;;;;;1.90;1.80;;;19.30;75.40;;;;;;4957926;28;20457;-74
2023/10/28 06:22:58;;;;;;;3.13;1.90;;;19.30;75.40;;;;;;4953836;28;20455;-75
2023/10/28 06:25:26;;;;;;;1.93;1.83;;;19.30;75.30;;;;;;4941781;28;20558;-74
2023/10/28 06:27:54;;;;;;;2.03;1.93;;;19.30;75.50;;;;;;4959539;28;20485;-75
2023/10/28 06:30:22;;;;;;;2.30;2.20;;;19.30;75.50;;;;;;4954474;28;20482;-75
2023/10/28 06:32:50;;;;;;;2.27;2.10;;;19.30;75.50;;;;;;4946460;29;20482;-75
2023/10/28 06:35:19;;;;;;;2.13;1.93;;;19.30;75.40;;;;;;4949756;29;20495;-75
2023/10/28 06:37:47;;;;;;;2.07;1.97;;;19.40;75.50;;;;;;4943654;29;20450;-75
2023/10/28 06:40:16;;;;;;;1.83;1.73;;;19.30;75.50;;;;;;4948105;28;20447;-75
2023/10/28 06:42:44;;;;;;;2.10;2.00;;;19.30;75.40;;;;;;4954513;29;20495;-75
2023/10/28 06:45:12;;;;;;;2.20;1.70;;;19.30;75.50;;;;;;4950028;28;20480;-75
2023/10/28 06:47:41;;;;;;;1.90;1.83;;;19.40;75.60;;;;;;4943543;29;20440;-75
2023/10/28 06:50:09;;;;;;;2.00;1.90;;;19.40;75.50;;;;;;4954112;28;20440;-74
2023/10/28 06:52:39;;;;;;;2.10;2.00;;;19.40;75.40;;;;;;4952433;28;20554;-75
2023/10/28 06:55:12;;;;;;;1.80;1.70;;;19.40;75.30;;;;;;4945007;28;20478;-75
2023/10/28 06:57:41;;;;;;;2.00;1.90;;;19.40;75.30;;;;;;4951075;29;20462;-74
2023/10/28 07:00:13;;;;;;;2.17;2.03;;;19.40;75.40;;;;;;4946218;28;20498;-76
2023/10/28 07:02:41;;;;;;;2.17;2.07;;;19.40;75.50;;;;;;4954166;29;20519;-75
2023/10/28 07:05:10;;;;;;;3.97;2.10;;;19.40;75.50;;;;;;4946600;29;20421;-75
2023/10/28 07:07:40;;;;;;;2.03;1.93;;;19.40;75.40;;;;;;4954429;28;20585;-75
2023/10/28 07:10:08;;;;;;;2.23;2.10;;;19.40;75.30;;;;;;4938735;29;20512;-75
2023/10/28 07:12:36;;;;;;;2.33;2.23;;;19.40;75.40;;;;;;4946885;28;20483;-75
2023/10/28 07:15:04;;;;;;;2.30;2.10;;;19.40;75.40;;;;;;4942890;29;20446;-75
2023/10/28 07:17:33;;;;;;;2.43;2.33;;;19.40;75.60;;;;;;4949829;29;20470;-76
2023/10/28 07:20:01;;;;;;;2.20;2.10;;;19.40;75.80;;;;;;4953857;29;20502;-75
2023/10/28 07:22:31;;;;;;;2.60;2.10;;;19.40;75.60;;;;;;4953924;28;20467;-75
2023/10/28 07:25:00;;;;;;;2.13;2.03;;;19.40;76.20;;;;;;4943776;28;20574;-75
2023/10/28 07:27:28;;;;;;;3.43;2.07;;;19.50;75.50;;;;;;4947699;28;20436;-75
2023/10/28 07:29:56;;;;;;;2.10;2.00;;;19.50;75.80;;;;;;4945726;28;21031;-75
2023/10/28 07:32:24;;;;;;;2.37;2.27;;;19.50;75.50;;;;;;4960793;28;20566;-77
2023/10/28 07:34:52;;;;;;;2.00;1.90;;;19.50;75.60;;;;;;4945952;29;20523;-77
2023/10/28 07:37:20;;;;;;;2.20;2.10;;;19.50;75.50;;;;;;4954190;28;20435;-77
2023/10/28 07:39:48;;;;;;;2.00;1.90;;;19.50;75.50;;;;;;4953593;29;20467;-77
2023/10/28 07:42:18;;;;;;;2.60;2.40;;;19.50;75.30;;;;;;4958951;28;20456;-77
2023/10/28 07:44:46;;;;;;;2.37;2.27;;;19.50;75.60;;;;;;4942405;29;20489;-77
2023/10/28 07:47:14;;;;;;;2.20;2.10;;;19.50;75.30;;;;;;4960405;28;20539;-77
2023/10/28 07:49:42;;;;;;;2.50;2.40;;;19.50;75.40;;;;;;4956505;28;20450;-77
2023/10/28 07:52:10;;;;;;;2.63;2.43;;;19.50;75.50;;;;;;4943038;28;20475;-77
2023/10/28 07:54:38;;;;;;;2.27;2.07;;;19.50;75.40;;;;;;4949439;28;20546;-77
2023/10/28 07:57:06;;;;;;;3.13;2.93;;;19.50;75.40;;;;;;4948078;29;20486;-77
2023/10/28 07:59:35;;;;;;;2.47;2.30;;;19.50;75.50;;;;;;4958047;28;20522;-77
2023/10/28 08:02:03;;;;;;;2.43;2.23;;;19.50;75.40;;;;;;4954746;28;20558;-77
2023/10/28 08:04:31;;;;;;;2.53;2.43;;;19.50;75.50;;;;;;4945611;29;20498;-77
2023/10/28 08:06:59;;;;;;;2.20;2.10;;;19.50;75.60;;;;;;4952756;28;20462;-77
2023/10/28 08:09:28;;;;;;;2.33;2.20;;;19.50;75.60;;;;;;4954486;28;20481;-77
2023/10/28 08:11:56;;;;;;;2.67;2.57;;;19.50;75.60;;;;;;4949544;28;20527;-77
2023/10/28 08:14:24;;;;;;;2.37;2.27;;;19.60;75.60;;;;;;4957067;28;20548;-77
2023/10/28 08:16:56;;;;;;;2.43;2.33;;;19.60;75.50;;;;;;4958967;28;20455;-77
2023/10/28 08:19:25;;;;;;;2.30;2.20;;;19.60;75.30;;;;;;4956488;29;20506;-77
2023/10/28 08:21:53;;;;;;;2.90;2.70;;;19.60;75.40;;;;;;4956629;28;20478;-77
2023/10/28 08:24:22;;;;;;;2.50;2.40;;;19.70;75.50;;;;;;4956758;28;20475;-77
2023/10/28 08:26:50;;;;;;;2.30;2.20;;;19.70;75.80;;;;;;4955905;28;20447;-77
2023/10/28 08:29:19;;;;;;;2.83;2.70;;;19.60;75.40;;;;;;4949646;29;20447;-77
2023/10/28 08:31:48;;;;;;;2.70;2.60;;;19.70;75.40;;;;;;4954487;28;20471;-77
2023/10/28 08:34:17;;;;;;;2.47;2.37;;;19.70;75.40;;;;;;4946713;29;20569;-77
2023/10/28 08:36:45;;;;;;;2.47;2.37;;;19.80;75.10;;;;;;4942552;29;20531;-77
2023/10/28 08:39:14;;;;;;;2.67;2.57;;;19.70;75.30;;;;;;4947660;28;20483;-76
2023/10/28 08:41:42;;;;;;;2.87;2.63;;;19.80;75.20;;;;;;4955551;28;20509;-77
2023/10/28 08:44:12;;;;;;;2.73;2.53;;;19.80;75.20;;;;;;4948893;28;20442;-77
2023/10/28 08:46:39;;;;;;;2.70;2.50;;;19.80;75.10;;;;;;4956326;29;20431;-77
2023/10/28 08:49:08;;;;;;;2.97;2.77;;;19.80;75.20;;;;;;4956657;28;20450;-76
2023/10/28 08:51:38;;;;;;;2.80;2.70;;;19.80;75.20;;;;;;4956758;28;20463;-76
2023/10/28 08:54:07;;;;;;;3.37;3.17;;;19.90;75.00;;;;;;4954279;28;20549;-76
2023/10/28 08:56:34;;;;;;;3.70;3.40;;;19.90;75.10;;;;;;4947607;28;20522;-77
2023/10/28 08:59:03;;;;;;;5.63;3.13;;;19.80;75.10;;;;;;4956510;28;20451;-76
2023/10/28 09:01:31;;;;;;;2.87;2.60;;;19.90;74.90;;;;;;4949271;28;20463;-77
2023/10/28 09:04:01;;;;;;;3.40;3.20;;;19.90;75.00;;;;;;4956153;28;20442;-77
2023/10/28 09:06:30;;;;;;;3.10;2.80;;;19.90;75.00;;;;;;4956887;28;20468;-76
2023/10/28 09:09:06;;;;;;;3.10;2.80;;;19.90;75.20;;;;;;4952803;29;20827;-77
2023/10/28 09:11:33;;;;;;;3.47;3.17;;;19.90;74.90;;;;;;4955219;28;20498;-76
2023/10/28 09:14:03;;;;;;;3.60;3.30;;;19.90;75.10;;;;;;4957767;28;20546;-77
2023/10/28 09:16:30;;;;;;;3.00;2.80;;;19.90;74.70;;;;;;4951852;28;20449;-77
2023/10/28 09:18:58;;;;;;;3.00;2.80;;;19.90;74.90;;;;;;4958159;28;20526;-77
2023/10/28 09:21:26;;;;;;;3.63;3.20;;;19.90;74.70;;;;;;4948308;28;20470;-77
2023/10/28 09:23:54;;;;;;;3.50;3.20;;;19.90;74.80;;;;;;4956177;29;21005;-77
2023/10/28 09:26:24;;;;;;;3.33;3.13;;;19.90;74.70;;;;;;4951758;29;20435;-77
2023/10/28 09:28:51;;;;;;;3.43;3.23;;;19.90;74.70;;;;;;4953564;28;20439;-76
2023/10/28 09:31:25;;;;;;;3.87;3.43;;;19.90;75.00;;;;;;4952622;28;20478;-76
2023/10/28 09:33:53;;;;;;;3.53;3.23;;;19.90;74.90;;;;;;4952184;29;20532;-77
2023/10/28 09:36:21;;;;;;;6.67;3.50;;;19.90;75.00;;;;;;4947900;29;20522;-76
2023/10/28 09:38:48;;;;;;;4.33;3.00;;;19.90;75.10;;;;;;4955651;29;20474;-77
2023/10/28 09:41:18;;;;;;;3.30;3.10;;;19.90;75.00;;;;;;4943892;28;20498;-77
2023/10/28 09:43:47;;;;;;;3.70;3.40;;;19.90;75.00;;;;;;4952843;29;20439;-77
2023/10/28 09:46:15;;;;;;;3.47;3.27;;;20.00;75.00;;;;;;4944565;29;20451;-77
2023/10/28 09:48:45;;;;;;;3.10;2.90;;;20.00;74.80;;;;;;4947842;29;20495;-77
2023/10/28 09:51:13;;;;;;;3.20;3.00;;;20.10;74.90;;;;;;4951115;28;20463;-77
2023/10/28 09:53:42;;;;;;;3.23;2.90;;;20.10;74.60;;;;;;4952852;28;20560;-77
2023/10/28 09:56:12;;;;;;;3.20;3.00;;;20.10;74.40;;;;;;4956097;28;20444;-77
2023/10/28 09:58:42;;;;;;;3.50;3.20;;;20.20;75.50;;;;;;4953338;28;20538;-76
2023/10/28 10:01:14;;;;;;;4.07;3.43;;;20.20;74.60;;;;;;4963773;28;20537;-77
2023/10/28 10:03:51;;;;;;;2.93;2.77;;;20.20;75.10;;;;;;4947444;29;20440;-77
2023/10/28 10:06:21;;;;;;;3.83;3.53;;;20.30;74.40;;;;;;4949908;29;20546;-77
2023/10/28 10:08:49;;;;;;;3.67;3.37;;;20.30;74.30;;;;;;4955093;28;20475;-77
2023/10/28 10:11:22;;;;;;;3.30;3.10;;;20.30;74.30;;;;;;4954194;28;20518;-76
2023/10/28 10:13:50;;;;;;;3.30;3.10;;;20.40;74.40;;;;;;4954817;29;20473;-77
2023/10/28 10:16:32;;;;;;;3.30;3.10;;;20.40;74.30;;;;;;4951689;29;20478;-77
2023/10/28 10:19:00;;;;;;;5.97;3.63;;;20.40;74.40;;;;;;4945572;29;20463;-76
2023/10/28 10:21:31;;;;;;;3.10;2.90;;;20.40;74.30;;;;;;4951352;28;20532;-77
2023/10/28 10:24:02;;;;;;;3.50;3.20;;;20.50;74.00;;;;;;4950011;29;20435;-78
2023/10/28 10:26:32;;;;;;;4.30;3.37;;;20.50;74.30;;;;;;4947820;29;20482;-77
2023/10/28 10:29:02;;;;;;;3.50;3.30;;;20.60;73.80;;;;;;4950042;29;20453;-77
2023/10/28 10:31:32;;;;;;;3.33;3.13;;;20.70;74.20;;;;;;4947145;28;21053;-77
2023/10/28 10:34:02;;;;;;;4.00;3.43;;;20.70;73.80;;;;;;4953627;28;20481;-76
2023/10/28 10:36:30;;;;;;;4.10;3.60;;;20.70;73.60;;;;;;4954311;28;20435;-77
2023/10/28 10:39:10;;;;;;;4.40;3.23;;;20.70;73.60;;;;;;4965854;28;20489;-77
2023/10/28 10:41:39;;;;;;;4.13;3.70;;;20.70;73.60;;;;;;4948296;29;20542;-77
2023/10/28 10:44:21;;;;;;;3.37;3.17;;;20.80;73.60;;;;;;4944062;29;20476;-77
2023/10/28 10:46:51;;;;;;;4.23;3.63;;;20.80;73.90;;;;;;4951104;29;20467;-77
2023/10/28 10:49:19;;;;;;;4.30;3.90;;;20.80;73.50;;;;;;4953015;28;20501;-77
2023/10/28 10:51:47;;;;;;;5.20;3.90;;;20.80;73.60;;;;;;4955125;28;20455;-78
2023/10/28 10:54:17;;;;;;;4.97;3.70;;;20.80;73.40;;;;;;4954004;28;20478;-77
2023/10/28 10:56:44;;;;;;;4.33;3.83;;;20.90;73.20;;;;;;4951433;28;20530;-77
2023/10/28 10:59:12;;;;;;;4.40;3.90;;;20.90;73.20;;;;;;4947702;29;20543;-77
2023/10/28 11:01:40;;;;;;;4.63;4.30;;;20.90;73.20;;;;;;4942085;29;20467;-78
2023/10/28 11:04:11;;;;;;;3.90;3.60;;;20.90;73.30;;;;;;4948328;29;20931;-78
2023/10/28 11:06:39;;;;;;;5.73;4.37;;;20.90;73.20;;;;;;4957755;28;20509;-78
2023/10/28 11:09:08;;;;;;;5.60;4.00;;;20.90;73.10;;;;;;4947458;29;20572;-77
2023/10/28 11:11:38;;;;;;;4.60;4.20;;;20.90;73.20;;;;;;4950454;28;20475;-78
2023/10/28 11:14:06;;;;;;;3.63;3.30;;;20.80;72.90;;;;;;4943639;29;20482;-77
2023/10/28 11:16:34;;;;;;;4.63;4.17;;;20.80;73.10;;;;;;4949377;29;20447;-76
2023/10/28 11:19:03;;;;;;;4.80;4.00;;;20.80;73.50;;;;;;4952562;29;20452;-78
2023/10/28 11:21:34;;;;;;;5.53;4.20;;;20.70;73.30;;;;;;4943108;28;20521;-77
2023/10/28 11:24:03;;;;;;;4.90;4.40;;;20.80;73.40;;;;;;4951474;29;20475;-77
2023/10/28 11:26:31;;;;;;;6.03;4.67;;;20.80;73.30;;;;;;4963638;28;20450;-77
2023/10/28 11:28:59;;;;;;;4.77;4.37;;;20.80;73.30;;;;;;4950506;29;20444;-77
2023/10/28 11:31:29;;;;;;;4.30;4.00;;;20.80;73.30;;;;;;4952947;28;20470;-77
2023/10/28 11:33:57;;;;;;;5.00;4.33;;;20.70;73.30;;;;;;4954382;29;20506;-78
2023/10/28 11:36:26;;;;;;;5.27;4.37;;;20.70;73.90;;;;;;4949783;29;20471;-77
2023/10/28 11:38:56;;;;;;;4.90;4.50;;;20.70;73.10;;;;;;4957348;28;20529;-77
2023/10/28 11:41:25;;;;;;;8.23;4.80;;;20.70;73.40;;;;;;4953592;28;20455;-79
2023/10/28 11:43:53;;;;;;;5.10;4.60;;;20.60;73.20;;;;;;4958416;28;20452;-77
2023/10/28 11:46:21;;;;;;;5.10;4.47;;;20.70;73.30;;;;;;4960557;28;20447;-77
2023/10/28 11:48:51;;;;;;;8.40;5.30;;;20.60;74.50;;;;;;4962293;28;20454;-78
2023/10/28 11:51:20;;;;;;;7.90;5.07;;;20.70;73.80;;;;;;4959288;28;20467;-76
2023/10/28 11:53:49;;;;;;;10.43;7.70;;;20.70;73.40;;;;;;4968699;28;20463;-76
2023/10/28 11:56:20;;;;;;;14.70;8.90;;;19.50;71.60;;;;;;4973687;28;20479;-76
2023/10/28 11:58:50;;;;;;;12.33;9.87;;;18.70;73.50;;;;;;4974814;28;20446;-75
2023/10/28 12:01:20;;;;;;;13.00;9.37;;;17.70;77.30;;;;;;4959996;28;20474;-75
2023/10/28 12:03:49;;;;;;;10.90;8.83;;;17.60;85.10;;;;;;4952862;29;20459;-75
2023/10/28 12:06:17;;;;;;;15.63;8.40;;;18.20;83.70;;;;;;4954245;28;20872;-75
2023/10/28 12:08:59;;;;;;;13.60;7.40;;;18.70;81.40;;;;;;4956862;29;20465;-77
2023/10/28 12:11:32;;;;;;;10.60;7.33;;;19.10;78.70;;;;;;4955989;28;20489;-76
2023/10/28 12:14:00;;;;;;;10.30;7.00;;;19.30;77.20;;;;;;4955201;28;20449;-74
2023/10/28 12:16:31;;;;;;;7.40;6.07;;;19.50;76.30;;;;;;4957559;28;20549;-75
2023/10/28 12:18:59;;;;;;;7.50;6.70;;;19.70;75.60;;;;;;4957697;28;20455;-75
2023/10/28 12:21:33;;;;;;;9.53;6.83;;;19.80;74.80;;;;;;4991321;23;20483;-78
2023/10/28 12:24:13;;;;;;;9.93;6.50;;;19.80;74.40;;;;;;4995052;28;20483;-78
2023/10/28 12:26:47;;;;;;;7.30;5.60;;;19.90;74.30;;;;;;4997832;28;20506;-77
2023/10/28 12:29:15;;;;;;;7.40;6.30;;;20.00;74.50;;;;;;4995657;28;20472;-78
2023/10/28 12:31:44;;;;;;;12.10;6.27;;;20.00;73.50;;;;;;5004197;28;20476;-80
2023/10/28 12:34:12;;;;;;;6.73;5.33;;;20.00;73.10;;;;;;5011402;28;20467;-78
2023/10/28 12:36:42;;;;;;;6.73;5.30;;;20.20;73.40;;;;;;5013722;28;20496;-80
2023/10/28 12:39:16;;;;;;;6.30;5.70;;;20.20;73.30;;;;;;5015496;28;20440;-79
2023/10/28 12:41:49;;;;;;;7.10;4.90;;;20.30;72.70;;;;;;5010998;28;20559;-77
2023/10/28 12:44:28;;;;;;;7.83;5.00;;;20.30;72.30;;;;;;5013832;28;20484;-78
2023/10/28 12:47:11;;;;;;;5.23;4.73;;;20.30;72.60;;;;;;5022735;28;20444;-78
2023/10/28 12:49:49;;;;;;;5.93;5.00;;;20.30;72.60;;;;;;5023295;28;20539;-78
2023/10/28 12:52:20;;;;;;;7.47;5.03;;;20.30;72.50;;;;;;5018410;28;20468;-79
2023/10/28 12:54:49;;;;;;;7.63;4.60;;;20.40;72.40;;;;;;5020234;28;21009;-79